sensor_id;sensor_type;location;lat;lon;timestamp;P1;durP1;ratioP1;P2;durP2;ratioP2
16073;SDS011;8141;52.664;5.074;2023-06-22T00:02:16;1.70;;;1.53;;
16073;SDS011;8141;52.664;5.074;2023-06-22T00:04:42;1.97;;;1.83;;
16073;SDS011;8141;52.664;5.074;2023-06-22T00:07:08;1.43;;;1.33;;
16073;SDS011;8141;52.664;5.074;2023-06-22T00:09:34;1.63;;;1.53;;
16073;SDS011;8141;52.664;5.074;2023-06-22T00:12:00;1.80;;;1.50;;
16073;SDS011;8141;52.664;5.074;2023-06-22T00:14:26;1.60;;;1.33;;
16073;SDS011;8141;52.664;5.074;2023-06-22T00:16:51;1.60;;;1.50;;
16073;SDS011;8141;52.664;5.074;2023-06-22T00:19:22;1.20;;;1.10;;
16073;SDS011;8141;52.664;5.074;2023-06-22T00:21:48;1.67;;;1.57;;
16073;SDS011;8141;52.664;5.074;2023-06-22T00:24:18;1.60;;;1.50;;
16073;SDS011;8141;52.664;5.074;2023-06-22T00:26:45;1.70;;;1.60;;
16073;SDS011;8141;52.664;5.074;2023-06-22T00:29:12;1.83;;;1.40;;
16073;SDS011;8141;52.664;5.074;2023-06-22T00:31:38;2.43;;;1.50;;
16073;SDS011;8141;52.664;5.074;2023-06-22T00:34:03;1.50;;;1.40;;
16073;SDS011;8141;52.664;5.074;2023-06-22T00:36:31;1.77;;;1.60;;
16073;SDS011;8141;52.664;5.074;2023-06-22T00:38:57;1.87;;;1.73;;
16073;SDS011;8141;52.664;5.074;2023-06-22T00:41:23;1.70;;;1.60;;
16073;SDS011;8141;52.664;5.074;2023-06-22T00:43:48;1.30;;;1.20;;
16073;SDS011;8141;52.664;5.074;2023-06-22T00:46:14;1.53;;;1.40;;
16073;SDS011;8141;52.664;5.074;2023-06-22T00:48:40;1.70;;;1.60;;
16073;SDS011;8141;52.664;5.074;2023-06-22T00:51:08;1.40;;;1.30;;
16073;SDS011;8141;52.664;5.074;2023-06-22T00:53:35;1.43;;;1.33;;
16073;SDS011;8141;52.664;5.074;2023-06-22T00:56:02;1.73;;;1.50;;
16073;SDS011;8141;52.664;5.074;2023-06-22T00:58:28;1.67;;;1.40;;
16073;SDS011;8141;52.664;5.074;2023-06-22T01:00:55;1.70;;;1.30;;
16073;SDS011;8141;52.664;5.074;2023-06-22T01:03:21;1.73;;;1.63;;
16073;SDS011;8141;52.664;5.074;2023-06-22T01:05:47;1.50;;;1.40;;
16073;SDS011;8141;52.664;5.074;2023-06-22T01:11:06;1.73;;;1.30;;
16073;SDS011;8141;52.664;5.074;2023-06-22T01:13:42;1.60;;;1.50;;
16073;SDS011;8141;52.664;5.074;2023-06-22T01:16:20;1.83;;;1.40;;
16073;SDS011;8141;52.664;5.074;2023-06-22T01:18:53;1.50;;;1.40;;
16073;SDS011;8141;52.664;5.074;2023-06-22T01:21:23;2.10;;;1.50;;
16073;SDS011;8141;52.664;5.074;2023-06-22T01:23:56;1.97;;;1.50;;
16073;SDS011;8141;52.664;5.074;2023-06-22T01:29:26;1.40;;;1.30;;
16073;SDS011;8141;52.664;5.074;2023-06-22T01:31:56;2.07;;;1.30;;
16073;SDS011;8141;52.664;5.074;2023-06-22T01:34:23;1.20;;;1.10;;
16073;SDS011;8141;52.664;5.074;2023-06-22T01:36:50;2.60;;;1.30;;
16073;SDS011;8141;52.664;5.074;2023-06-22T01:39:17;1.43;;;1.33;;
16073;SDS011;8141;52.664;5.074;2023-06-22T01:41:43;1.47;;;1.30;;
16073;SDS011;8141;52.664;5.074;2023-06-22T01:44:15;1.50;;;1.40;;
16073;SDS011;8141;52.664;5.074;2023-06-22T01:46:41;1.50;;;1.40;;
16073;SDS011;8141;52.664;5.074;2023-06-22T01:49:07;1.30;;;1.20;;
16073;SDS011;8141;52.664;5.074;2023-06-22T01:51:33;1.40;;;1.30;;
16073;SDS011;8141;52.664;5.074;2023-06-22T01:53:59;1.47;;;1.37;;
16073;SDS011;8141;52.664;5.074;2023-06-22T01:56:27;1.67;;;1.23;;
16073;SDS011;8141;52.664;5.074;2023-06-22T02:01:50;1.27;;;1.17;;
16073;SDS011;8141;52.664;5.074;2023-06-22T02:04:42;2.47;;;1.30;;
16073;SDS011;8141;52.664;5.074;2023-06-22T02:07:14;1.27;;;1.17;;
16073;SDS011;8141;52.664;5.074;2023-06-22T02:09:43;1.30;;;1.20;;
16073;SDS011;8141;52.664;5.074;2023-06-22T02:12:12;1.30;;;1.20;;
16073;SDS011;8141;52.664;5.074;2023-06-22T02:14:42;1.27;;;1.17;;
16073;SDS011;8141;52.664;5.074;2023-06-22T02:17:11;1.40;;;1.30;;
16073;SDS011;8141;52.664;5.074;2023-06-22T02:19:40;1.63;;;1.30;;
16073;SDS011;8141;52.664;5.074;2023-06-22T02:22:06;1.30;;;1.20;;
16073;SDS011;8141;52.664;5.074;2023-06-22T02:24:32;1.20;;;1.10;;
16073;SDS011;8141;52.664;5.074;2023-06-22T02:26:59;1.20;;;1.10;;
16073;SDS011;8141;52.664;5.074;2023-06-22T02:29:25;1.30;;;1.20;;
16073;SDS011;8141;52.664;5.074;2023-06-22T02:31:52;1.30;;;1.20;;
16073;SDS011;8141;52.664;5.074;2023-06-22T02:34:19;1.50;;;1.40;;
16073;SDS011;8141;52.664;5.074;2023-06-22T02:36:46;1.40;;;1.30;;
16073;SDS011;8141;52.664;5.074;2023-06-22T02:39:20;1.40;;;1.30;;
16073;SDS011;8141;52.664;5.074;2023-06-22T02:41:51;1.27;;;1.20;;
16073;SDS011;8141;52.664;5.074;2023-06-22T02:44:18;1.40;;;1.30;;
16073;SDS011;8141;52.664;5.074;2023-06-22T02:46:45;1.20;;;1.10;;
16073;SDS011;8141;52.664;5.074;2023-06-22T02:49:12;1.00;;;1.00;;
16073;SDS011;8141;52.664;5.074;2023-06-22T02:51:38;1.10;;;1.00;;
16073;SDS011;8141;52.664;5.074;2023-06-22T02:54:11;1.30;;;1.00;;
16073;SDS011;8141;52.664;5.074;2023-06-22T02:56:37;1.43;;;1.30;;
16073;SDS011;8141;52.664;5.074;2023-06-22T02:59:03;1.60;;;1.50;;
16073;SDS011;8141;52.664;5.074;2023-06-22T03:01:29;1.23;;;1.13;;
16073;SDS011;8141;52.664;5.074;2023-06-22T03:04:03;1.37;;;1.27;;
16073;SDS011;8141;52.664;5.074;2023-06-22T03:06:29;1.57;;;1.40;;
16073;SDS011;8141;52.664;5.074;2023-06-22T03:09:03;1.30;;;1.20;;
16073;SDS011;8141;52.664;5.074;2023-06-22T03:11:30;1.40;;;1.30;;
16073;SDS011;8141;52.664;5.074;2023-06-22T03:13:57;1.30;;;1.20;;
16073;SDS011;8141;52.664;5.074;2023-06-22T03:16:23;1.30;;;1.17;;
16073;SDS011;8141;52.664;5.074;2023-06-22T03:18:49;1.63;;;1.53;;
16073;SDS011;8141;52.664;5.074;2023-06-22T03:21:15;1.67;;;1.57;;
16073;SDS011;8141;52.664;5.074;2023-06-22T03:23:41;1.40;;;1.30;;
16073;SDS011;8141;52.664;5.074;2023-06-22T03:26:08;1.20;;;1.10;;
16073;SDS011;8141;52.664;5.074;2023-06-22T03:28:35;1.40;;;1.27;;
16073;SDS011;8141;52.664;5.074;2023-06-22T03:31:02;1.20;;;1.10;;
16073;SDS011;8141;52.664;5.074;2023-06-22T03:37:00;1.35;;;1.25;;
16073;SDS011;8141;52.664;5.074;2023-06-22T03:39:26;1.80;;;1.20;;
16073;SDS011;8141;52.664;5.074;2023-06-22T03:41:52;2.93;;;1.20;;
16073;SDS011;8141;52.664;5.074;2023-06-22T03:44:18;1.90;;;1.50;;
16073;SDS011;8141;52.664;5.074;2023-06-22T03:46:43;2.43;;;1.30;;
16073;SDS011;8141;52.664;5.074;2023-06-22T03:49:09;4.53;;;1.90;;
16073;SDS011;8141;52.664;5.074;2023-06-22T03:51:35;3.47;;;1.90;;
16073;SDS011;8141;52.664;5.074;2023-06-22T03:54:00;2.40;;;1.80;;
16073;SDS011;8141;52.664;5.074;2023-06-22T03:56:27;5.47;;;2.30;;
16073;SDS011;8141;52.664;5.074;2023-06-22T03:58:55;3.63;;;2.20;;
16073;SDS011;8141;52.664;5.074;2023-06-22T04:01:21;5.57;;;2.73;;
16073;SDS011;8141;52.664;5.074;2023-06-22T04:03:47;3.60;;;2.40;;
16073;SDS011;8141;52.664;5.074;2023-06-22T04:06:14;4.57;;;2.10;;
16073;SDS011;8141;52.664;5.074;2023-06-22T04:08:40;4.23;;;2.57;;
16073;SDS011;8141;52.664;5.074;2023-06-22T04:11:06;2.83;;;2.50;;
16073;SDS011;8141;52.664;5.074;2023-06-22T04:13:33;3.83;;;2.97;;
16073;SDS011;8141;52.664;5.074;2023-06-22T04:15:59;3.00;;;2.70;;
16073;SDS011;8141;52.664;5.074;2023-06-22T04:18:26;4.33;;;2.40;;
16073;SDS011;8141;52.664;5.074;2023-06-22T04:20:52;3.10;;;2.07;;
16073;SDS011;8141;52.664;5.074;2023-06-22T04:23:18;4.30;;;2.10;;
16073;SDS011;8141;52.664;5.074;2023-06-22T04:25:45;2.37;;;2.17;;
16073;SDS011;8141;52.664;5.074;2023-06-22T04:28:11;2.30;;;1.80;;
16073;SDS011;8141;52.664;5.074;2023-06-22T04:30:37;3.43;;;2.30;;
16073;SDS011;8141;52.664;5.074;2023-06-22T04:33:11;2.43;;;2.20;;
16073;SDS011;8141;52.664;5.074;2023-06-22T04:35:39;3.40;;;2.67;;
16073;SDS011;8141;52.664;5.074;2023-06-22T04:38:06;2.70;;;2.43;;
16073;SDS011;8141;52.664;5.074;2023-06-22T04:40:32;3.47;;;2.70;;
16073;SDS011;8141;52.664;5.074;2023-06-22T04:42:59;4.10;;;2.90;;
16073;SDS011;8141;52.664;5.074;2023-06-22T04:45:27;3.67;;;2.37;;
16073;SDS011;8141;52.664;5.074;2023-06-22T04:47:56;2.30;;;2.10;;
16073;SDS011;8141;52.664;5.074;2023-06-22T04:50:22;3.20;;;2.57;;
16073;SDS011;8141;52.664;5.074;2023-06-22T04:52:49;2.87;;;2.57;;
16073;SDS011;8141;52.664;5.074;2023-06-22T04:55:16;4.23;;;2.63;;
16073;SDS011;8141;52.664;5.074;2023-06-22T04:57:48;2.63;;;2.40;;
16073;SDS011;8141;52.664;5.074;2023-06-22T05:00:17;3.10;;;2.80;;
16073;SDS011;8141;52.664;5.074;2023-06-22T05:02:46;4.37;;;3.63;;
16073;SDS011;8141;52.664;5.074;2023-06-22T05:05:12;3.73;;;2.80;;
16073;SDS011;8141;52.664;5.074;2023-06-22T05:07:39;3.83;;;2.60;;
16073;SDS011;8141;52.664;5.074;2023-06-22T05:10:10;3.90;;;3.20;;
16073;SDS011;8141;52.664;5.074;2023-06-22T05:12:37;4.23;;;3.30;;
16073;SDS011;8141;52.664;5.074;2023-06-22T05:15:05;3.80;;;3.30;;
16073;SDS011;8141;52.664;5.074;2023-06-22T05:17:32;4.30;;;2.97;;
16073;SDS011;8141;52.664;5.074;2023-06-22T05:19:59;3.40;;;3.10;;
16073;SDS011;8141;52.664;5.074;2023-06-22T05:22:26;3.90;;;3.10;;
16073;SDS011;8141;52.664;5.074;2023-06-22T05:24:52;3.77;;;3.00;;
16073;SDS011;8141;52.664;5.074;2023-06-22T05:27:18;3.03;;;2.73;;
16073;SDS011;8141;52.664;5.074;2023-06-22T05:29:45;3.23;;;2.93;;
16073;SDS011;8141;52.664;5.074;2023-06-22T05:32:10;4.23;;;3.20;;
16073;SDS011;8141;52.664;5.074;2023-06-22T05:34:36;4.83;;;3.60;;
16073;SDS011;8141;52.664;5.074;2023-06-22T05:37:05;4.03;;;3.63;;
16073;SDS011;8141;52.664;5.074;2023-06-22T05:39:31;4.00;;;3.10;;
16073;SDS011;8141;52.664;5.074;2023-06-22T05:41:58;4.13;;;2.90;;
16073;SDS011;8141;52.664;5.074;2023-06-22T05:44:24;3.37;;;3.07;;
16073;SDS011;8141;52.664;5.074;2023-06-22T05:46:49;5.17;;;3.40;;
16073;SDS011;8141;52.664;5.074;2023-06-22T05:49:15;3.73;;;3.30;;
16073;SDS011;8141;52.664;5.074;2023-06-22T05:51:42;3.83;;;3.30;;
16073;SDS011;8141;52.664;5.074;2023-06-22T05:54:07;4.37;;;3.00;;
16073;SDS011;8141;52.664;5.074;2023-06-22T05:56:35;3.77;;;2.93;;
16073;SDS011;8141;52.664;5.074;2023-06-22T05:59:02;3.90;;;3.10;;
16073;SDS011;8141;52.664;5.074;2023-06-22T06:01:29;4.47;;;3.00;;
16073;SDS011;8141;52.664;5.074;2023-06-22T06:03:59;5.83;;;3.83;;
16073;SDS011;8141;52.664;5.074;2023-06-22T06:06:25;6.13;;;3.40;;
16073;SDS011;8141;52.664;5.074;2023-06-22T06:08:53;4.27;;;3.00;;
16073;SDS011;8141;52.664;5.074;2023-06-22T06:11:20;4.47;;;3.57;;
16073;SDS011;8141;52.664;5.074;2023-06-22T06:13:46;4.10;;;3.07;;
16073;SDS011;8141;52.664;5.074;2023-06-22T06:16:11;3.63;;;2.87;;
16073;SDS011;8141;52.664;5.074;2023-06-22T06:18:37;3.77;;;3.30;;
16073;SDS011;8141;52.664;5.074;2023-06-22T06:21:03;4.07;;;2.83;;
16073;SDS011;8141;52.664;5.074;2023-06-22T06:23:29;3.37;;;3.07;;
16073;SDS011;8141;52.664;5.074;2023-06-22T06:25:55;4.00;;;3.17;;
16073;SDS011;8141;52.664;5.074;2023-06-22T06:28:22;5.03;;;3.20;;
16073;SDS011;8141;52.664;5.074;2023-06-22T06:30:50;3.80;;;3.40;;
16073;SDS011;8141;52.664;5.074;2023-06-22T06:33:16;4.03;;;2.70;;
16073;SDS011;8141;52.664;5.074;2023-06-22T06:35:42;2.87;;;2.57;;
16073;SDS011;8141;52.664;5.074;2023-06-22T06:38:08;3.93;;;2.97;;
16073;SDS011;8141;52.664;5.074;2023-06-22T06:40:34;3.47;;;3.13;;
16073;SDS011;8141;52.664;5.074;2023-06-22T06:42:59;3.20;;;2.50;;
16073;SDS011;8141;52.664;5.074;2023-06-22T06:45:25;3.00;;;2.70;;
16073;SDS011;8141;52.664;5.074;2023-06-22T06:47:53;3.30;;;2.40;;
16073;SDS011;8141;52.664;5.074;2023-06-22T06:50:19;2.40;;;2.20;;
16073;SDS011;8141;52.664;5.074;2023-06-22T06:52:45;3.23;;;2.50;;
16073;SDS011;8141;52.664;5.074;2023-06-22T06:55:11;3.13;;;2.60;;
16073;SDS011;8141;52.664;5.074;2023-06-22T06:57:38;3.97;;;2.73;;
16073;SDS011;8141;52.664;5.074;2023-06-22T07:00:08;3.67;;;2.53;;
16073;SDS011;8141;52.664;5.074;2023-06-22T07:02:38;16.70;;;10.63;;
16073;SDS011;8141;52.664;5.074;2023-06-22T07:05:06;15.97;;;10.87;;
16073;SDS011;8141;52.664;5.074;2023-06-22T07:07:33;18.80;;;13.60;;
16073;SDS011;8141;52.664;5.074;2023-06-22T07:09:59;20.30;;;13.47;;
16073;SDS011;8141;52.664;5.074;2023-06-22T07:12:25;17.57;;;13.40;;
16073;SDS011;8141;52.664;5.074;2023-06-22T07:14:51;20.40;;;13.77;;
16073;SDS011;8141;52.664;5.074;2023-06-22T07:17:18;18.00;;;12.80;;
16073;SDS011;8141;52.664;5.074;2023-06-22T07:19:45;20.23;;;13.37;;
16073;SDS011;8141;52.664;5.074;2023-06-22T07:22:11;18.47;;;13.17;;
16073;SDS011;8141;52.664;5.074;2023-06-22T07:24:36;17.73;;;14.03;;
16073;SDS011;8141;52.664;5.074;2023-06-22T07:27:04;17.00;;;12.33;;
16073;SDS011;8141;52.664;5.074;2023-06-22T07:29:31;13.17;;;10.80;;
16073;SDS011;8141;52.664;5.074;2023-06-22T07:31:58;14.10;;;11.37;;
16073;SDS011;8141;52.664;5.074;2023-06-22T07:34:25;16.97;;;11.70;;
16073;SDS011;8141;52.664;5.074;2023-06-22T07:36:51;17.70;;;13.53;;
16073;SDS011;8141;52.664;5.074;2023-06-22T07:39:17;15.90;;;11.17;;
16073;SDS011;8141;52.664;5.074;2023-06-22T07:41:42;17.47;;;10.93;;
16073;SDS011;8141;52.664;5.074;2023-06-22T07:44:09;16.90;;;13.17;;
16073;SDS011;8141;52.664;5.074;2023-06-22T07:46:35;14.20;;;10.83;;
16073;SDS011;8141;52.664;5.074;2023-06-22T07:49:01;17.60;;;10.90;;
16073;SDS011;8141;52.664;5.074;2023-06-22T07:51:27;15.03;;;10.47;;
16073;SDS011;8141;52.664;5.074;2023-06-22T07:53:53;14.53;;;11.20;;
16073;SDS011;8141;52.664;5.074;2023-06-22T07:56:20;15.73;;;11.00;;
16073;SDS011;8141;52.664;5.074;2023-06-22T07:58:46;13.50;;;10.37;;
16073;SDS011;8141;52.664;5.074;2023-06-22T08:01:13;13.93;;;11.03;;
16073;SDS011;8141;52.664;5.074;2023-06-22T08:03:39;14.07;;;9.93;;
16073;SDS011;8141;52.664;5.074;2023-06-22T08:06:05;14.03;;;9.70;;
16073;SDS011;8141;52.664;5.074;2023-06-22T08:08:33;12.90;;;9.13;;
16073;SDS011;8141;52.664;5.074;2023-06-22T08:11:00;12.73;;;8.50;;
16073;SDS011;8141;52.664;5.074;2023-06-22T08:13:26;12.97;;;8.87;;
16073;SDS011;8141;52.664;5.074;2023-06-22T08:15:52;15.27;;;8.17;;
16073;SDS011;8141;52.664;5.074;2023-06-22T08:18:18;13.67;;;9.50;;
16073;SDS011;8141;52.664;5.074;2023-06-22T08:20:43;13.80;;;9.20;;
16073;SDS011;8141;52.664;5.074;2023-06-22T08:23:09;12.10;;;8.80;;
16073;SDS011;8141;52.664;5.074;2023-06-22T08:25:35;15.43;;;8.83;;
16073;SDS011;8141;52.664;5.074;2023-06-22T08:28:01;18.00;;;10.20;;
16073;SDS011;8141;52.664;5.074;2023-06-22T08:30:29;14.80;;;9.10;;
16073;SDS011;8141;52.664;5.074;2023-06-22T08:32:55;13.50;;;8.17;;
16073;SDS011;8141;52.664;5.074;2023-06-22T08:35:24;14.50;;;9.20;;
16073;SDS011;8141;52.664;5.074;2023-06-22T08:37:51;13.63;;;8.47;;
16073;SDS011;8141;52.664;5.074;2023-06-22T08:40:19;12.33;;;8.93;;
16073;SDS011;8141;52.664;5.074;2023-06-22T08:42:46;15.17;;;9.07;;
16073;SDS011;8141;52.664;5.074;2023-06-22T08:45:12;15.63;;;10.57;;
16073;SDS011;8141;52.664;5.074;2023-06-22T08:47:39;13.93;;;10.73;;
16073;SDS011;8141;52.664;5.074;2023-06-22T08:50:09;14.50;;;9.97;;
16073;SDS011;8141;52.664;5.074;2023-06-22T08:52:37;13.37;;;9.53;;
16073;SDS011;8141;52.664;5.074;2023-06-22T08:55:09;11.17;;;8.50;;
16073;SDS011;8141;52.664;5.074;2023-06-22T08:57:35;12.20;;;10.13;;
16073;SDS011;8141;52.664;5.074;2023-06-22T09:00:05;19.20;;;10.83;;
16073;SDS011;8141;52.664;5.074;2023-06-22T09:02:42;18.70;;;11.73;;
16073;SDS011;8141;52.664;5.074;2023-06-22T09:05:09;16.97;;;11.13;;
16073;SDS011;8141;52.664;5.074;2023-06-22T09:07:35;15.60;;;10.47;;
16073;SDS011;8141;52.664;5.074;2023-06-22T09:10:02;12.83;;;9.43;;
16073;SDS011;8141;52.664;5.074;2023-06-22T09:12:30;12.27;;;9.97;;
16073;SDS011;8141;52.664;5.074;2023-06-22T09:14:58;11.13;;;8.40;;
16073;SDS011;8141;52.664;5.074;2023-06-22T09:17:26;15.83;;;10.53;;
16073;SDS011;8141;52.664;5.074;2023-06-22T09:19:53;14.87;;;10.93;;
16073;SDS011;8141;52.664;5.074;2023-06-22T09:22:19;15.20;;;10.93;;
16073;SDS011;8141;52.664;5.074;2023-06-22T09:24:45;13.83;;;10.10;;
16073;SDS011;8141;52.664;5.074;2023-06-22T09:27:12;14.10;;;11.17;;
16073;SDS011;8141;52.664;5.074;2023-06-22T09:29:38;14.13;;;11.20;;
16073;SDS011;8141;52.664;5.074;2023-06-22T09:32:04;13.73;;;10.23;;
16073;SDS011;8141;52.664;5.074;2023-06-22T09:34:31;12.87;;;10.40;;
16073;SDS011;8141;52.664;5.074;2023-06-22T09:36:58;15.37;;;10.03;;
16073;SDS011;8141;52.664;5.074;2023-06-22T09:39:25;12.43;;;8.80;;
16073;SDS011;8141;52.664;5.074;2023-06-22T09:41:51;11.60;;;7.83;;
16073;SDS011;8141;52.664;5.074;2023-06-22T09:44:17;14.03;;;7.77;;
16073;SDS011;8141;52.664;5.074;2023-06-22T09:46:42;9.37;;;6.87;;
16073;SDS011;8141;52.664;5.074;2023-06-22T09:49:08;13.13;;;8.10;;
16073;SDS011;8141;52.664;5.074;2023-06-22T09:51:34;10.63;;;6.90;;
16073;SDS011;8141;52.664;5.074;2023-06-22T09:54:00;10.83;;;7.83;;
16073;SDS011;8141;52.664;5.074;2023-06-22T09:56:26;12.43;;;7.53;;
16073;SDS011;8141;52.664;5.074;2023-06-22T09:58:53;11.30;;;6.60;;
16073;SDS011;8141;52.664;5.074;2023-06-22T10:01:19;11.17;;;6.63;;
16073;SDS011;8141;52.664;5.074;2023-06-22T10:03:45;11.70;;;7.00;;
16073;SDS011;8141;52.664;5.074;2023-06-22T10:06:11;11.43;;;6.70;;
16073;SDS011;8141;52.664;5.074;2023-06-22T10:08:38;11.10;;;7.23;;
16073;SDS011;8141;52.664;5.074;2023-06-22T10:11:05;10.03;;;6.77;;
16073;SDS011;8141;52.664;5.074;2023-06-22T10:13:31;9.17;;;6.17;;
16073;SDS011;8141;52.664;5.074;2023-06-22T10:15:57;10.53;;;6.20;;
16073;SDS011;8141;52.664;5.074;2023-06-22T10:18:22;7.83;;;5.57;;
16073;SDS011;8141;52.664;5.074;2023-06-22T10:20:49;12.00;;;6.83;;
16073;SDS011;8141;52.664;5.074;2023-06-22T10:23:19;8.93;;;6.00;;
16073;SDS011;8141;52.664;5.074;2023-06-22T10:25:45;7.53;;;6.10;;
16073;SDS011;8141;52.664;5.074;2023-06-22T10:28:13;9.13;;;6.77;;
16073;SDS011;8141;52.664;5.074;2023-06-22T10:30:39;9.80;;;6.87;;
16073;SDS011;8141;52.664;5.074;2023-06-22T10:33:09;9.57;;;6.50;;
16073;SDS011;8141;52.664;5.074;2023-06-22T10:35:36;10.27;;;6.80;;
16073;SDS011;8141;52.664;5.074;2023-06-22T10:38:05;11.97;;;7.17;;
16073;SDS011;8141;52.664;5.074;2023-06-22T10:40:31;9.87;;;7.20;;
16073;SDS011;8141;52.664;5.074;2023-06-22T10:42:57;11.10;;;8.13;;
16073;SDS011;8141;52.664;5.074;2023-06-22T10:45:25;9.43;;;7.60;;
16073;SDS011;8141;52.664;5.074;2023-06-22T10:47:52;10.20;;;7.60;;
16073;SDS011;8141;52.664;5.074;2023-06-22T10:50:18;11.03;;;8.67;;
16073;SDS011;8141;52.664;5.074;2023-06-22T10:52:45;10.67;;;8.53;;
16073;SDS011;8141;52.664;5.074;2023-06-22T10:55:11;12.13;;;8.17;;
16073;SDS011;8141;52.664;5.074;2023-06-22T10:57:37;11.33;;;7.00;;
16073;SDS011;8141;52.664;5.074;2023-06-22T11:00:07;11.20;;;9.13;;
16073;SDS011;8141;52.664;5.074;2023-06-22T11:02:34;14.83;;;10.03;;
16073;SDS011;8141;52.664;5.074;2023-06-22T11:04:59;14.60;;;8.90;;
16073;SDS011;8141;52.664;5.074;2023-06-22T11:07:26;11.23;;;8.40;;
16073;SDS011;8141;52.664;5.074;2023-06-22T11:09:55;12.87;;;8.53;;
16073;SDS011;8141;52.664;5.074;2023-06-22T11:12:22;10.27;;;8.50;;
16073;SDS011;8141;52.664;5.074;2023-06-22T11:14:47;9.93;;;8.17;;
16073;SDS011;8141;52.664;5.074;2023-06-22T11:17:17;12.70;;;8.20;;
16073;SDS011;8141;52.664;5.074;2023-06-22T11:19:44;10.93;;;7.87;;
16073;SDS011;8141;52.664;5.074;2023-06-22T11:22:10;12.33;;;8.67;;
16073;SDS011;8141;52.664;5.074;2023-06-22T11:24:35;10.53;;;8.47;;
16073;SDS011;8141;52.664;5.074;2023-06-22T11:27:02;10.17;;;8.37;;
16073;SDS011;8141;52.664;5.074;2023-06-22T11:29:30;9.00;;;7.57;;
16073;SDS011;8141;52.664;5.074;2023-06-22T11:31:57;12.23;;;9.13;;
16073;SDS011;8141;52.664;5.074;2023-06-22T11:34:23;10.80;;;8.33;;
16073;SDS011;8141;52.664;5.074;2023-06-22T11:36:49;10.03;;;8.10;;
16073;SDS011;8141;52.664;5.074;2023-06-22T11:39:15;11.23;;;7.70;;
16073;SDS011;8141;52.664;5.074;2023-06-22T11:41:41;13.53;;;9.00;;
16073;SDS011;8141;52.664;5.074;2023-06-22T11:44:07;10.63;;;8.80;;
16073;SDS011;8141;52.664;5.074;2023-06-22T11:46:33;8.67;;;7.47;;
16073;SDS011;8141;52.664;5.074;2023-06-22T11:48:59;12.03;;;8.90;;
16073;SDS011;8141;52.664;5.074;2023-06-22T11:51:25;13.83;;;9.27;;
16073;SDS011;8141;52.664;5.074;2023-06-22T11:53:51;9.30;;;8.07;;
16073;SDS011;8141;52.664;5.074;2023-06-22T11:56:17;10.67;;;7.30;;
16073;SDS011;8141;52.664;5.074;2023-06-22T11:58:46;8.87;;;6.80;;
16073;SDS011;8141;52.664;5.074;2023-06-22T12:01:11;9.57;;;6.63;;
16073;SDS011;8141;52.664;5.074;2023-06-22T12:03:39;7.77;;;6.73;;
16073;SDS011;8141;52.664;5.074;2023-06-22T12:06:06;9.90;;;6.70;;
16073;SDS011;8141;52.664;5.074;2023-06-22T12:08:31;7.77;;;5.53;;
16073;SDS011;8141;52.664;5.074;2023-06-22T12:10:59;9.37;;;5.87;;
16073;SDS011;8141;52.664;5.074;2023-06-22T12:13:24;6.10;;;4.80;;
16073;SDS011;8141;52.664;5.074;2023-06-22T12:15:50;8.60;;;5.00;;
16073;SDS011;8141;52.664;5.074;2023-06-22T12:18:17;8.23;;;5.70;;
16073;SDS011;8141;52.664;5.074;2023-06-22T12:20:45;6.70;;;4.77;;
16073;SDS011;8141;52.664;5.074;2023-06-22T12:23:11;7.40;;;5.03;;
16073;SDS011;8141;52.664;5.074;2023-06-22T12:25:38;6.00;;;4.40;;
16073;SDS011;8141;52.664;5.074;2023-06-22T12:28:04;6.10;;;4.57;;
16073;SDS011;8141;52.664;5.074;2023-06-22T12:30:30;6.57;;;4.80;;
16073;SDS011;8141;52.664;5.074;2023-06-22T12:32:58;7.93;;;4.70;;
16073;SDS011;8141;52.664;5.074;2023-06-22T12:35:23;6.50;;;3.77;;
16073;SDS011;8141;52.664;5.074;2023-06-22T12:37:49;7.50;;;4.37;;
16073;SDS011;8141;52.664;5.074;2023-06-22T12:40:15;4.13;;;3.60;;
16073;SDS011;8141;52.664;5.074;2023-06-22T12:42:41;4.27;;;3.17;;
16073;SDS011;8141;52.664;5.074;2023-06-22T12:45:07;5.83;;;4.27;;
16073;SDS011;8141;52.664;5.074;2023-06-22T12:47:34;4.57;;;3.63;;
16073;SDS011;8141;52.664;5.074;2023-06-22T12:50:00;6.07;;;5.27;;
16073;SDS011;8141;52.664;5.074;2023-06-22T12:52:26;5.30;;;4.53;;
16073;SDS011;8141;52.664;5.074;2023-06-22T12:54:52;6.43;;;4.53;;
16073;SDS011;8141;52.664;5.074;2023-06-22T12:57:19;8.83;;;5.47;;
16073;SDS011;8141;52.664;5.074;2023-06-22T12:59:45;11.13;;;5.20;;
16073;SDS011;8141;52.664;5.074;2023-06-22T13:02:11;10.07;;;4.47;;
16073;SDS011;8141;52.664;5.074;2023-06-22T13:04:37;8.70;;;4.63;;
16073;SDS011;8141;52.664;5.074;2023-06-22T13:07:02;8.53;;;4.63;;
16073;SDS011;8141;52.664;5.074;2023-06-22T13:09:28;10.20;;;4.63;;
16073;SDS011;8141;52.664;5.074;2023-06-22T13:11:55;24.10;;;8.67;;
16073;SDS011;8141;52.664;5.074;2023-06-22T13:14:20;16.50;;;7.33;;
16073;SDS011;8141;52.664;5.074;2023-06-22T13:16:46;17.03;;;6.60;;
16073;SDS011;8141;52.664;5.074;2023-06-22T13:19:12;11.60;;;6.00;;
16073;SDS011;8141;52.664;5.074;2023-06-22T13:21:37;10.40;;;5.40;;
16073;SDS011;8141;52.664;5.074;2023-06-22T13:24:03;10.67;;;5.57;;
16073;SDS011;8141;52.664;5.074;2023-06-22T13:26:31;10.90;;;5.03;;
16073;SDS011;8141;52.664;5.074;2023-06-22T13:28:57;11.50;;;4.80;;
16073;SDS011;8141;52.664;5.074;2023-06-22T13:31:23;8.70;;;5.00;;
16073;SDS011;8141;52.664;5.074;2023-06-22T13:33:50;9.47;;;4.70;;
16073;SDS011;8141;52.664;5.074;2023-06-22T13:36:17;11.37;;;4.37;;
16073;SDS011;8141;52.664;5.074;2023-06-22T13:38:43;10.27;;;4.40;;
16073;SDS011;8141;52.664;5.074;2023-06-22T13:41:09;7.63;;;4.03;;
16073;SDS011;8141;52.664;5.074;2023-06-22T13:43:35;7.60;;;4.40;;
16073;SDS011;8141;52.664;5.074;2023-06-22T13:46:02;7.43;;;4.03;;
16073;SDS011;8141;52.664;5.074;2023-06-22T13:48:28;5.87;;;3.77;;
16073;SDS011;8141;52.664;5.074;2023-06-22T13:50:54;6.37;;;4.20;;
16073;SDS011;8141;52.664;5.074;2023-06-22T13:53:19;7.03;;;4.27;;
16073;SDS011;8141;52.664;5.074;2023-06-22T13:55:45;6.17;;;3.43;;
16073;SDS011;8141;52.664;5.074;2023-06-22T13:58:12;5.97;;;3.53;;
16073;SDS011;8141;52.664;5.074;2023-06-22T14:00:40;5.63;;;3.57;;
16073;SDS011;8141;52.664;5.074;2023-06-22T14:03:05;6.20;;;3.90;;
16073;SDS011;8141;52.664;5.074;2023-06-22T14:05:32;7.80;;;4.27;;
16073;SDS011;8141;52.664;5.074;2023-06-22T14:07:57;4.67;;;3.30;;
16073;SDS011;8141;52.664;5.074;2023-06-22T14:10:23;5.57;;;3.80;;
16073;SDS011;8141;52.664;5.074;2023-06-22T14:12:49;5.03;;;3.60;;
16073;SDS011;8141;52.664;5.074;2023-06-22T14:15:14;4.00;;;3.13;;
16073;SDS011;8141;52.664;5.074;2023-06-22T14:17:40;5.27;;;3.23;;
16073;SDS011;8141;52.664;5.074;2023-06-22T14:20:06;4.77;;;3.20;;
16073;SDS011;8141;52.664;5.074;2023-06-22T14:22:33;5.90;;;3.40;;
16073;SDS011;8141;52.664;5.074;2023-06-22T14:25:00;4.90;;;3.77;;
16073;SDS011;8141;52.664;5.074;2023-06-22T14:27:26;4.40;;;3.40;;
16073;SDS011;8141;52.664;5.074;2023-06-22T14:29:52;5.47;;;3.57;;
16073;SDS011;8141;52.664;5.074;2023-06-22T14:32:18;4.10;;;3.07;;
16073;SDS011;8141;52.664;5.074;2023-06-22T14:34:44;7.83;;;3.40;;
16073;SDS011;8141;52.664;5.074;2023-06-22T14:37:09;6.50;;;3.57;;
16073;SDS011;8141;52.664;5.074;2023-06-22T14:39:37;6.17;;;3.50;;
16073;SDS011;8141;52.664;5.074;2023-06-22T14:42:04;4.63;;;3.40;;
16073;SDS011;8141;52.664;5.074;2023-06-22T14:44:32;4.43;;;3.50;;
16073;SDS011;8141;52.664;5.074;2023-06-22T14:46:58;5.53;;;3.20;;
16073;SDS011;8141;52.664;5.074;2023-06-22T14:49:24;4.80;;;3.40;;
16073;SDS011;8141;52.664;5.074;2023-06-22T14:51:50;4.13;;;3.23;;
16073;SDS011;8141;52.664;5.074;2023-06-22T14:54:15;3.97;;;2.63;;
16073;SDS011;8141;52.664;5.074;2023-06-22T14:56:41;4.00;;;2.73;;
16073;SDS011;8141;52.664;5.074;2023-06-22T14:59:09;5.47;;;3.47;;
16073;SDS011;8141;52.664;5.074;2023-06-22T15:01:36;5.33;;;3.10;;
16073;SDS011;8141;52.664;5.074;2023-06-22T15:04:02;5.13;;;3.03;;
16073;SDS011;8141;52.664;5.074;2023-06-22T15:06:28;5.13;;;2.80;;